createdAt,value
2018-04-06T00:01:53.095Z,14.48
2018-04-06T00:04:20.628Z,14.07
2018-04-06T00:06:58.863Z,11.27
2018-04-06T00:09:26.380Z,11.23
2018-04-06T00:11:53.842Z,21.42
2018-04-06T00:14:22.154Z,11.12
2018-04-06T00:16:49.646Z,11.40
2018-04-06T00:19:17.130Z,13.38
2018-04-06T00:21:45.397Z,13.75
2018-04-06T00:24:12.894Z,13.32
2018-04-06T00:26:40.425Z,11.70
2018-04-06T00:29:08.662Z,12.60
2018-04-06T00:31:36.253Z,10.10
2018-04-06T00:34:04.681Z,12.20
2018-04-06T00:36:32.991Z,8.65
2018-04-06T00:39:01.254Z,12.37
2018-04-06T00:41:28.754Z,10.35
2018-04-06T00:43:57.007Z,9.32
2018-04-06T00:46:24.485Z,6.72
2018-04-06T00:48:52.858Z,8.38
2018-04-06T00:51:21.147Z,11.75
2018-04-06T00:53:48.638Z,9.05
2018-04-06T00:56:16.190Z,13.90
2018-04-06T00:58:43.700Z,13.32
2018-04-06T01:01:11.213Z,11.43
2018-04-06T01:03:38.729Z,13.40
2018-04-06T01:06:06.285Z,13.23
2018-04-06T01:08:33.838Z,13.88
2018-04-06T01:11:02.225Z,6.82
2018-04-06T01:13:30.473Z,6.55
2018-04-06T01:15:57.979Z,13.40
2018-04-06T01:18:25.514Z,13.50
2018-04-06T01:20:53.764Z,12.43
2018-04-06T01:23:21.288Z,12.37
2018-04-06T01:25:48.769Z,12.20
2018-04-06T01:28:16.249Z,9.80
2018-04-06T01:30:43.733Z,12.75
2018-04-06T01:33:12.010Z,15.43
2018-04-06T01:35:40.334Z,8.73
2018-04-06T01:38:07.846Z,11.43
2018-04-06T01:40:36.099Z,16.58
2018-04-06T01:43:04.395Z,14.30
2018-04-06T01:45:32.782Z,10.82
2018-04-06T01:48:00.330Z,9.50
2018-04-06T01:50:28.586Z,15.18
2018-04-06T01:52:56.189Z,9.55
2018-04-06T01:55:24.742Z,9.27
2018-04-06T01:57:53.049Z,9.02
2018-04-06T02:00:20.553Z,15.27
2018-04-06T02:02:48.042Z,11.63
2018-04-06T02:05:16.318Z,15.20
2018-04-06T02:07:44.598Z,9.35
2018-04-06T02:10:12.984Z,12.35
2018-04-06T02:12:41.239Z,11.38
2018-04-06T02:15:08.812Z,17.00
2018-04-06T02:17:37.066Z,11.88
2018-04-06T02:20:04.642Z,16.40
2018-04-06T02:22:32.918Z,15.55
2018-04-06T02:25:01.221Z,14.48
2018-04-06T02:27:28.823Z,8.45
2018-04-06T02:29:56.280Z,15.32
2018-04-06T02:32:23.951Z,11.65
2018-04-06T02:34:51.747Z,8.05
2018-04-06T02:37:20.014Z,15.98
2018-04-06T02:39:48.257Z,28.77
2018-04-06T02:42:15.861Z,9.80
2018-04-06T02:44:44.507Z,11.43
2018-04-06T02:47:11.985Z,12.18
2018-04-06T02:49:39.454Z,13.05
2018-04-06T02:52:07.722Z,7.90
2018-04-06T02:54:35.982Z,14.95
2018-04-06T02:57:03.569Z,15.38
2018-04-06T02:59:31.815Z,15.77
2018-04-06T03:01:59.300Z,14.52
2018-04-06T03:04:27.563Z,9.73
2018-04-06T03:06:55.124Z,12.00
2018-04-06T03:09:23.490Z,15.50
2018-04-06T03:11:51.713Z,8.95
2018-04-06T03:14:19.237Z,10.23
2018-04-06T03:16:47.509Z,15.32
2018-04-06T03:19:15.090Z,16.17
2018-04-06T03:21:43.451Z,11.45
2018-04-06T03:24:10.952Z,11.45
2018-04-06T03:26:38.441Z,10.35
2018-04-06T03:29:05.970Z,13.13
2018-04-06T03:31:34.237Z,12.32
2018-04-06T03:34:02.113Z,9.93
2018-04-06T03:36:29.602Z,8.55
2018-04-06T03:38:57.094Z,11.55
2018-04-06T03:41:25.283Z,15.73
2018-04-06T03:43:54.313Z,14.60
2018-04-06T03:46:21.838Z,9.63
2018-04-06T03:48:49.330Z,15.05
2018-04-06T03:51:16.820Z,13.88
2018-04-06T03:53:44.394Z,19.90
2018-04-06T03:56:12.655Z,22.52
2018-04-06T03:58:40.146Z,15.75
2018-04-06T04:01:07.627Z,13.57
2018-04-06T04:03:35.455Z,17.23
2018-04-06T04:06:03.716Z,19.87
2018-04-06T04:08:31.221Z,18.10
2018-04-06T04:10:58.769Z,16.37
2018-04-06T04:13:26.983Z,16.58
2018-04-06T04:15:54.482Z,14.73
2018-04-06T04:18:22.731Z,16.37
2018-04-06T04:20:50.254Z,16.08
2018-04-06T04:23:17.876Z,11.38
2018-04-06T04:25:46.133Z,16.48
2018-04-06T04:28:13.645Z,12.02
2018-04-06T04:30:41.139Z,11.88
2018-04-06T04:33:08.634Z,11.27
2018-04-06T04:35:36.900Z,10.57
2018-04-06T04:38:05.164Z,15.35
2018-04-06T04:40:33.454Z,13.68
2018-04-06T04:43:01.727Z,14.60
2018-04-06T04:45:29.995Z,12.27
2018-04-06T04:47:57.466Z,13.07
2018-04-06T04:50:25.732Z,17.10
2018-04-06T04:52:53.993Z,10.73
2018-04-06T04:55:21.507Z,12.50
2018-04-06T04:57:48.982Z,21.40
2018-04-06T05:00:16.492Z,12.98
2018-04-06T05:02:44.726Z,24.17
2018-04-06T05:05:12.204Z,17.98
2018-04-06T05:07:41.215Z,15.38
2018-04-06T05:10:09.509Z,18.27
2018-04-06T05:12:37.770Z,12.00
2018-04-06T05:15:06.035Z,15.98
2018-04-06T05:17:34.418Z,22.00
2018-04-06T05:20:01.990Z,17.48
2018-04-06T05:22:30.261Z,11.85
2018-04-06T05:24:58.535Z,20.98
2018-04-06T05:27:26.782Z,14.10
2018-04-06T05:29:54.294Z,16.75
2018-04-06T05:32:21.863Z,15.98
2018-04-06T05:34:50.092Z,22.08
2018-04-06T05:37:17.577Z,20.12
2018-04-06T05:39:45.837Z,18.15
2018-04-06T05:42:14.092Z,12.45
2018-04-06T05:44:41.578Z,17.67
2018-04-06T05:47:09.085Z,15.35
2018-04-06T05:49:36.637Z,18.02
2018-04-06T05:52:04.155Z,19.10
2018-04-06T05:54:32.415Z,21.20
2018-04-06T05:57:01.262Z,14.65
2018-04-06T05:59:28.762Z,17.30
2018-04-06T06:01:56.314Z,17.05
2018-04-06T06:04:25.137Z,17.48
2018-04-06T06:06:52.661Z,15.57
2018-04-06T06:09:20.172Z,19.92
2018-04-06T06:11:47.677Z,16.50
2018-04-06T06:14:15.186Z,15.95
2018-04-06T06:16:42.678Z,15.52
2018-04-06T06:19:10.171Z,15.85
2018-04-06T06:21:37.927Z,15.40
2018-04-06T06:24:06.171Z,14.85
2018-04-06T06:26:33.770Z,17.05
2018-04-06T06:29:02.150Z,15.13
2018-04-06T06:31:29.717Z,15.63
2018-04-06T06:33:57.211Z,14.98
2018-04-06T06:36:24.699Z,20.58
2018-04-06T06:38:52.182Z,16.67
2018-04-06T06:41:20.446Z,12.85
2018-04-06T06:43:48.720Z,14.45
2018-04-06T06:46:16.293Z,19.00
2018-04-06T06:48:44.587Z,16.55
2018-04-06T06:51:12.122Z,18.00
2018-04-06T06:53:40.396Z,20.42
2018-04-06T06:56:08.662Z,14.68
2018-04-06T06:58:36.246Z,15.70
2018-04-06T07:01:04.509Z,19.33
2018-04-06T07:03:32.800Z,14.07
2018-04-06T07:06:00.302Z,11.85
2018-04-06T07:08:27.841Z,14.15
2018-04-06T07:10:56.065Z,14.70
2018-04-06T07:13:23.541Z,12.43
2018-04-06T07:15:51.815Z,14.05
2018-04-06T07:18:20.091Z,12.90
2018-04-06T07:20:48.657Z,15.63
2018-04-06T07:23:16.218Z,13.32
2018-04-06T07:25:43.790Z,12.35
2018-04-06T07:28:12.057Z,10.52
2018-04-06T07:30:39.633Z,11.12
2018-04-06T07:33:07.937Z,12.43
2018-04-06T07:35:35.566Z,9.00
2018-04-06T07:38:03.838Z,12.93
2018-04-06T07:40:32.086Z,12.82
2018-04-06T07:42:59.574Z,12.30
2018-04-06T07:45:27.833Z,7.78
2018-04-06T07:47:55.337Z,15.95
2018-04-06T07:50:22.866Z,8.95
2018-04-06T07:52:51.142Z,10.77
2018-04-06T07:55:19.386Z,8.38
2018-04-06T07:57:46.881Z,13.27
2018-04-06T08:00:15.142Z,12.80
2018-04-06T08:02:42.694Z,10.38
2018-04-06T08:05:10.946Z,14.13
2018-04-06T08:07:38.435Z,10.30
2018-04-06T08:10:06.724Z,11.32
2018-04-06T08:12:34.979Z,10.77
2018-04-06T08:15:02.589Z,8.48
2018-04-06T08:17:30.069Z,7.40
2018-04-06T08:19:57.585Z,11.85
2018-04-06T08:22:25.130Z,11.20
2018-04-06T08:24:53.406Z,11.65
2018-04-06T08:27:21.775Z,6.15
2018-04-06T08:29:50.069Z,10.52
2018-04-06T08:32:17.607Z,9.70
2018-04-06T08:34:46.038Z,11.15
2018-04-06T08:37:13.605Z,11.48
2018-04-06T08:39:41.206Z,10.25
2018-04-06T08:42:09.455Z,7.93
2018-04-06T08:44:36.958Z,8.50
2018-04-06T08:47:05.239Z,6.07
2018-04-06T08:49:32.842Z,9.48
2018-04-06T08:52:00.354Z,6.28
2018-04-06T08:54:29.387Z,7.40
2018-04-06T08:56:56.869Z,7.25
2018-04-06T08:59:24.439Z,6.53
2018-04-06T09:01:53.576Z,6.70
2018-04-06T09:04:21.074Z,12.73
2018-04-06T09:06:48.673Z,4.62
2018-04-06T09:09:16.901Z,3.80
2018-04-06T09:11:45.352Z,5.95
2018-04-06T09:14:13.003Z,5.20
2018-04-06T09:16:40.495Z,4.47
2018-04-06T09:19:07.994Z,11.23
2018-04-06T09:21:36.266Z,5.78
2018-04-06T09:24:04.680Z,6.93
2018-04-06T09:26:32.232Z,6.30
2018-04-06T09:28:59.751Z,5.45
2018-04-06T09:31:28.051Z,4.68
2018-04-06T09:33:55.534Z,4.20
2018-04-06T09:36:23.040Z,5.60
2018-04-06T09:38:51.520Z,4.22
2018-04-06T09:41:18.983Z,7.18
2018-04-06T09:43:47.241Z,5.78
2018-04-06T09:46:14.762Z,4.30
2018-04-06T09:48:42.270Z,4.93
2018-04-06T09:51:10.538Z,6.50
2018-04-06T09:53:38.828Z,7.87
2018-04-06T09:56:07.209Z,2.87
2018-04-06T09:58:35.631Z,8.05
2018-04-06T10:01:03.138Z,5.45
2018-04-06T10:03:31.398Z,5.05
2018-04-06T10:05:58.889Z,4.40
2018-04-06T10:08:26.409Z,3.72
2018-04-06T10:10:53.985Z,5.25
2018-04-06T10:13:21.655Z,8.63
2018-04-06T10:15:49.923Z,4.80
2018-04-06T10:18:18.310Z,4.97
2018-04-06T10:20:46.583Z,3.00
2018-04-06T10:23:14.874Z,3.65
2018-04-06T10:25:42.375Z,3.55
2018-04-06T10:28:09.974Z,7.85
2018-04-06T10:30:38.258Z,5.15
2018-04-06T10:33:06.586Z,3.40
2018-04-06T10:35:34.089Z,4.53
2018-04-06T10:38:02.377Z,5.47
2018-04-06T10:40:30.713Z,4.78
2018-04-06T10:42:58.192Z,3.45
2018-04-06T10:45:26.461Z,3.85
2018-04-06T10:47:54.738Z,4.87
2018-04-06T10:50:23.033Z,4.72
2018-04-06T10:52:51.281Z,3.90
2018-04-06T10:55:18.777Z,3.58
2018-04-06T10:57:46.291Z,6.37
2018-04-06T11:00:13.878Z,3.05
2018-04-06T11:02:42.143Z,7.35
2018-04-06T11:05:09.634Z,11.07
2018-04-06T11:07:37.170Z,2.60
2018-04-06T11:10:05.558Z,4.90
2018-04-06T11:12:33.812Z,6.20
2018-04-06T11:15:01.308Z,7.87
2018-04-06T11:17:28.798Z,5.50
2018-04-06T11:19:56.303Z,4.00
2018-04-06T11:22:24.585Z,3.10
2018-04-06T11:24:52.103Z,4.45
2018-04-06T11:27:19.686Z,6.95
2018-04-06T11:29:48.340Z,4.35
2018-04-06T11:32:15.968Z,3.55
2018-04-06T11:34:43.493Z,5.75
2018-04-06T11:37:11.766Z,4.30
2018-04-06T11:39:40.027Z,3.40
2018-04-06T11:42:07.686Z,3.78
2018-04-06T11:44:35.294Z,4.22
2018-04-06T11:47:03.646Z,5.32
2018-04-06T11:49:31.968Z,6.10
2018-04-06T11:51:59.497Z,5.10
2018-04-06T11:54:27.020Z,5.32
2018-04-06T11:56:54.488Z,4.53
2018-04-06T11:59:22.004Z,4.97
2018-04-06T12:01:49.493Z,8.45
2018-04-06T12:04:17.015Z,8.20
2018-04-06T12:06:44.642Z,5.70
2018-04-06T12:09:12.212Z,3.25
2018-04-06T12:11:39.718Z,3.90
2018-04-06T12:14:07.230Z,2.53
2018-04-06T12:16:34.795Z,4.87
2018-04-06T12:19:02.300Z,3.55
2018-04-06T12:21:29.782Z,2.03
2018-04-06T12:23:57.414Z,8.05
2018-04-06T12:26:25.015Z,3.12
2018-04-06T12:28:53.601Z,3.15
2018-04-06T12:31:21.954Z,9.43
2018-04-06T12:33:49.439Z,2.60
2018-04-06T12:36:16.966Z,4.30
2018-04-06T12:38:44.453Z,5.47
2018-04-06T12:41:11.987Z,6.53
2018-04-06T12:43:39.565Z,2.85
2018-04-06T12:46:07.877Z,5.95
2018-04-06T12:48:35.410Z,6.60
2018-04-06T12:51:02.936Z,4.90
2018-04-06T12:53:30.441Z,5.43
2018-04-06T12:55:57.987Z,3.33
2018-04-06T12:58:25.490Z,3.37
2018-04-06T13:00:53.033Z,3.53
2018-04-06T13:03:20.548Z,3.03
2018-04-06T13:05:48.817Z,4.45
2018-04-06T13:08:17.067Z,6.05
2018-04-06T13:10:44.880Z,3.95
2018-04-06T13:13:13.149Z,6.68
2018-04-06T13:15:41.391Z,4.85
2018-04-06T13:18:08.903Z,4.95
2018-04-06T13:20:36.410Z,3.37
2018-04-06T13:23:03.974Z,3.33
2018-04-06T13:25:31.467Z,4.15
2018-04-06T13:27:58.991Z,4.70
2018-04-06T13:30:26.498Z,6.32
2018-04-06T13:32:54.024Z,3.95
2018-04-06T13:35:21.505Z,3.78
2018-04-06T13:37:49.011Z,3.58
2018-04-06T13:40:16.618Z,7.75
2018-04-06T13:42:44.993Z,5.93
2018-04-06T13:45:13.246Z,11.13
2018-04-06T13:47:40.774Z,5.23
2018-04-06T13:50:08.261Z,3.85
2018-04-06T13:52:35.821Z,5.20
2018-04-06T13:55:03.394Z,7.77
2018-04-06T13:57:41.602Z,5.10
2018-04-06T14:00:09.868Z,4.57
2018-04-06T14:02:37.365Z,4.00
2018-04-06T14:05:04.864Z,4.20
2018-04-06T14:07:32.369Z,4.95
2018-04-06T14:09:59.875Z,6.03
2018-04-06T14:12:27.382Z,4.70
2018-04-06T14:14:55.654Z,3.83
2018-04-06T14:17:23.897Z,5.27
2018-04-06T14:19:51.422Z,5.18
2018-04-06T14:22:18.982Z,7.05
2018-04-06T14:24:46.474Z,3.10
2018-04-06T14:27:14.764Z,3.10
2018-04-06T14:29:42.299Z,5.37
2018-04-06T14:32:09.799Z,3.50
2018-04-06T14:34:38.797Z,5.60
2018-04-06T14:37:07.092Z,4.53
2018-04-06T14:39:34.594Z,3.87
2018-04-06T14:42:02.196Z,8.90
2018-04-06T14:44:29.770Z,3.07
2018-04-06T14:46:57.282Z,4.23
2018-04-06T14:49:24.782Z,3.30
2018-04-06T14:51:52.310Z,7.30
2018-04-06T14:54:19.821Z,5.57
2018-04-06T14:56:47.334Z,4.13
2018-04-06T14:59:15.727Z,5.57
2018-04-06T15:01:43.959Z,3.30
2018-04-06T15:04:11.453Z,5.30
2018-04-06T15:06:39.057Z,3.60
2018-04-06T15:09:06.517Z,5.50
2018-04-06T15:11:34.013Z,7.40
2018-04-06T15:14:01.492Z,4.67
2018-04-06T15:16:29.770Z,7.43
2018-04-06T15:18:57.271Z,3.90
2018-04-06T15:21:24.794Z,4.97
2018-04-06T15:23:52.307Z,5.03
2018-04-06T15:26:19.817Z,4.73
2018-04-06T15:28:47.374Z,3.60
2018-04-06T15:31:14.920Z,3.87
2018-04-06T15:33:43.222Z,6.17
2018-04-06T15:36:10.713Z,4.80
2018-04-06T15:38:38.205Z,5.93
2018-04-06T15:41:05.763Z,5.22
2018-04-06T15:43:34.030Z,3.10
2018-04-06T15:46:02.299Z,6.90
2018-04-06T15:48:29.838Z,7.57
2018-04-06T15:50:57.338Z,9.43
2018-04-06T15:53:25.607Z,7.83
2018-04-06T15:55:53.882Z,2.90
2018-04-06T15:58:22.159Z,5.43
2018-04-06T16:00:50.445Z,5.10
2018-04-06T16:03:18.697Z,3.87
2018-04-06T16:05:46.200Z,5.67
2018-04-06T16:08:13.685Z,3.20
2018-04-06T16:10:41.182Z,2.80
2018-04-06T16:13:09.438Z,3.27
2018-04-06T16:15:36.934Z,5.40
2018-04-06T16:18:04.433Z,5.33
2018-04-06T16:20:32.054Z,3.87
2018-04-06T16:22:59.546Z,4.33
2018-04-06T16:25:27.146Z,4.67
2018-04-06T16:27:55.426Z,4.10
2018-04-06T16:30:23.709Z,2.93
2018-04-06T16:32:51.969Z,4.03
2018-04-06T16:35:19.505Z,2.20
2018-04-06T16:37:46.986Z,4.77
2018-04-06T16:40:14.502Z,3.40
2018-04-06T16:42:42.021Z,5.10
2018-04-06T16:45:10.305Z,3.90
2018-04-06T16:47:38.652Z,5.70
2018-04-06T16:50:06.270Z,4.87
2018-04-06T16:52:33.790Z,5.50
2018-04-06T16:55:02.052Z,5.70
2018-04-06T16:57:29.629Z,4.40
2018-04-06T16:59:57.909Z,3.60
2018-04-06T17:02:26.303Z,7.90
2018-04-06T17:04:54.570Z,4.73
2018-04-06T17:07:22.140Z,3.23
2018-04-06T17:09:49.632Z,4.47
2018-04-06T17:12:17.185Z,4.20
2018-04-06T17:14:44.675Z,2.42
2018-04-06T17:17:12.258Z,4.97
2018-04-06T17:19:40.583Z,3.53
2018-04-06T17:22:08.102Z,4.27
2018-04-06T17:24:35.954Z,2.65
2018-04-06T17:27:04.303Z,3.55
2018-04-06T17:29:31.912Z,4.97
2018-04-06T17:31:59.409Z,6.00
2018-04-06T17:34:26.966Z,4.50
2018-04-06T17:36:54.483Z,3.50
2018-04-06T17:39:22.009Z,5.80
2018-04-06T17:41:49.645Z,3.00
2018-04-06T17:44:17.354Z,8.07
2018-04-06T17:46:45.627Z,3.80
2018-04-06T17:49:14.006Z,2.83
2018-04-06T17:51:42.304Z,2.87
2018-04-06T17:54:09.847Z,2.90
2018-04-06T17:56:38.363Z,4.83
2018-04-06T17:59:05.875Z,3.42
2018-04-06T18:01:34.154Z,4.17
2018-04-06T18:04:02.548Z,5.60
2018-04-06T18:06:30.865Z,3.03
2018-04-06T18:08:58.871Z,4.15
2018-04-06T18:11:27.207Z,3.78
2018-04-06T18:13:54.846Z,4.32
2018-04-06T18:16:22.574Z,4.72
2018-04-06T18:18:50.086Z,2.17
2018-04-06T18:21:17.648Z,4.28
2018-04-06T18:23:45.175Z,3.67
2018-04-06T18:26:12.728Z,3.87
2018-04-06T18:28:41.434Z,3.40
2018-04-06T18:31:09.208Z,3.05
2018-04-06T18:36:10.787Z,4.25
2018-04-06T18:38:39.358Z,6.93
2018-04-06T18:41:06.908Z,5.45
2018-04-06T18:43:34.418Z,4.85
2018-04-06T18:46:01.985Z,4.85
2018-04-06T18:48:29.594Z,6.10
2018-04-06T18:50:57.291Z,4.37
2018-04-06T18:53:24.890Z,6.22
2018-04-06T18:55:53.185Z,7.25
2018-04-06T18:58:20.688Z,5.10
2018-04-06T19:00:48.243Z,6.78
2018-04-06T19:03:15.963Z,4.32
2018-04-06T19:05:43.494Z,4.93
2018-04-06T19:08:11.888Z,1.95
2018-04-06T19:10:40.218Z,4.97
2018-04-06T19:13:07.724Z,4.10
2018-04-06T19:15:36.009Z,2.80
2018-04-06T19:18:03.597Z,5.60
2018-04-06T19:20:31.121Z,3.72
2018-04-06T19:22:58.626Z,2.67
2018-04-06T19:25:26.246Z,4.15
2018-04-06T19:27:53.833Z,4.78
2018-04-06T19:30:21.423Z,8.77
2018-04-06T19:32:48.969Z,5.03
2018-04-06T19:35:16.906Z,6.47
2018-04-06T19:37:44.498Z,4.45
2018-04-06T19:40:12.103Z,5.05
2018-04-06T19:42:40.415Z,6.82
2018-04-06T19:45:08.807Z,4.75
2018-04-06T19:47:36.359Z,3.65
2018-04-06T19:50:03.916Z,5.82
2018-04-06T19:52:31.432Z,3.67
2018-04-06T19:55:00.012Z,3.28
2018-04-06T19:57:27.587Z,3.50
2018-04-06T19:59:55.867Z,3.47
2018-04-06T20:02:25.191Z,3.62
2018-04-06T20:04:52.718Z,5.25
2018-04-06T20:07:20.998Z,4.90
2018-04-06T20:09:48.543Z,6.97
2018-04-06T20:12:16.847Z,5.28
2018-04-06T20:14:44.360Z,7.55
2018-04-06T20:17:11.958Z,5.53
2018-04-06T20:19:39.487Z,5.68
2018-04-06T20:22:06.996Z,6.05
2018-04-06T20:24:34.557Z,6.18
2018-04-06T20:27:02.879Z,8.05
2018-04-06T20:29:30.675Z,4.43
2018-04-06T20:31:59.399Z,8.93
2018-04-06T20:34:26.902Z,4.40
2018-04-06T20:36:55.173Z,3.62
2018-04-06T20:39:23.453Z,5.32
2018-04-06T20:41:51.726Z,4.37
2018-04-06T20:44:19.257Z,3.53
2018-04-06T20:46:46.738Z,4.87
2018-04-06T20:49:15.004Z,4.43
2018-04-06T20:51:42.600Z,4.60
2018-04-06T20:54:10.867Z,6.68
2018-04-06T20:56:39.131Z,5.05
2018-04-06T20:59:07.401Z,6.37
2018-04-06T21:01:34.894Z,9.38
2018-04-06T21:04:02.422Z,7.65
2018-04-06T21:06:30.840Z,3.45
2018-04-06T21:08:58.407Z,4.60
2018-04-06T21:11:25.934Z,3.30
2018-04-06T21:13:54.202Z,4.25
2018-04-06T21:16:22.898Z,3.87
2018-04-06T21:18:51.162Z,8.35
2018-04-06T21:21:19.450Z,6.22
2018-04-06T21:23:47.753Z,4.10
2018-04-06T21:26:15.235Z,5.20
2018-04-06T21:28:42.845Z,4.78
2018-04-06T21:31:10.393Z,7.20
2018-04-06T21:33:37.964Z,5.80
2018-04-06T21:36:06.223Z,4.53
2018-04-06T21:38:33.805Z,4.28
2018-04-06T21:41:02.118Z,5.22
2018-04-06T21:43:29.624Z,6.22
2018-04-06T21:45:58.011Z,4.70
2018-04-06T21:48:26.284Z,6.07
2018-04-06T21:50:53.842Z,6.93
2018-04-06T21:53:22.129Z,5.53
2018-04-06T21:55:50.385Z,5.35
2018-04-06T21:58:17.878Z,5.75
2018-04-06T22:00:45.387Z,6.85
2018-04-06T22:03:12.894Z,5.90
2018-04-06T22:05:40.419Z,8.32
2018-04-06T22:08:07.983Z,4.55
2018-04-06T22:10:36.270Z,5.70
2018-04-06T22:13:04.586Z,5.00
2018-04-06T22:15:32.093Z,7.22
2018-04-06T22:18:00.359Z,5.40
2018-04-06T22:20:27.895Z,5.47
2018-04-06T22:22:55.619Z,5.35
2018-04-06T22:25:23.150Z,6.62
2018-04-06T22:27:51.447Z,4.60
2018-04-06T22:30:19.731Z,4.15
2018-04-06T22:32:47.291Z,6.00
2018-04-06T22:35:14.797Z,7.18
2018-04-06T22:37:42.397Z,6.12
2018-04-06T22:40:10.674Z,5.97
2018-04-06T22:42:38.966Z,5.60
2018-04-06T22:45:07.515Z,8.77
2018-04-06T22:47:35.017Z,7.35
2018-04-06T22:50:02.513Z,6.30
2018-04-06T22:52:30.027Z,7.03
2018-04-06T22:54:57.506Z,5.22
2018-04-06T22:57:25.010Z,5.65
2018-04-06T22:59:52.491Z,6.18
2018-04-06T23:02:20.032Z,9.30
2018-04-06T23:04:47.543Z,3.92
2018-04-06T23:07:15.057Z,4.07
2018-04-06T23:09:43.318Z,6.50
2018-04-06T23:12:10.819Z,5.10
2018-04-06T23:14:38.341Z,4.80
2018-04-06T23:17:06.599Z,4.50
2018-04-06T23:19:35.603Z,8.32
2018-04-06T23:22:03.116Z,5.60
2018-04-06T23:24:30.636Z,5.18
2018-04-06T23:26:58.891Z,6.50
2018-04-06T23:29:26.415Z,5.97
2018-04-06T23:31:53.875Z,4.65
2018-04-06T23:34:21.367Z,7.72
2018-04-06T23:36:48.883Z,8.45
2018-04-06T23:39:16.493Z,5.75
2018-04-06T23:41:44.764Z,6.45
2018-04-06T23:44:13.051Z,6.28
2018-04-06T23:46:41.344Z,6.60
2018-04-06T23:49:08.874Z,4.20
2018-04-06T23:51:37.154Z,6.20
2018-04-06T23:54:05.594Z,5.82
2018-04-06T23:56:33.092Z,6.62
2018-04-06T23:59:00.573Z,9.77
